createdAt,value
2022-08-18T00:04:52.807Z,11.00
2022-08-18T00:09:58.781Z,14.00
2022-08-18T00:15:05.660Z,11.60
2022-08-18T00:20:11.490Z,12.00
2022-08-18T00:25:15.420Z,11.80
2022-08-18T00:30:19.262Z,12.40
2022-08-18T00:35:26.111Z,13.00
2022-08-18T00:40:37.718Z,13.00
2022-08-18T00:45:42.298Z,11.00
2022-08-18T00:50:47.997Z,13.00
2022-08-18T00:55:53.719Z,12.60
2022-08-18T01:00:57.003Z,11.40
2022-08-18T01:06:03.345Z,12.20
2022-08-18T01:11:06.335Z,12.40
2022-08-18T01:16:23.263Z,10.20
2022-08-18T01:21:45.655Z,12.80
2022-08-18T01:26:51.207Z,12.00
2022-08-18T01:31:56.291Z,13.60
2022-08-18T01:36:59.418Z,11.80
2022-08-18T01:42:04.779Z,11.60
2022-08-18T01:47:07.729Z,13.00
2022-08-18T01:52:10.730Z,12.00
2022-08-18T01:57:15.258Z,10.60
2022-08-18T02:02:24.493Z,11.40
2022-08-18T02:07:32.655Z,13.40
2022-08-18T02:12:40.695Z,14.40
2022-08-18T02:17:44.926Z,14.40
2022-08-18T02:22:49.498Z,13.60
2022-08-18T02:27:53.684Z,10.20
2022-08-18T02:32:59.038Z,12.40
2022-08-18T02:38:01.808Z,12.60
2022-08-18T02:43:10.283Z,10.20
2022-08-18T02:48:13.806Z,14.00
2022-08-18T02:53:21.968Z,11.40
2022-08-18T02:58:29.320Z,11.00
2022-08-18T03:03:34.489Z,10.60
2022-08-18T03:08:37.255Z,13.20
2022-08-18T03:13:41.315Z,11.20
2022-08-18T03:18:44.754Z,11.00
2022-08-18T03:24:00.938Z,13.60
2022-08-18T03:29:05.796Z,14.60
2022-08-18T03:34:08.657Z,16.00
2022-08-18T03:39:12.331Z,15.60
2022-08-18T03:44:16.508Z,13.40
2022-08-18T03:49:20.349Z,15.60
2022-08-18T03:54:23.211Z,17.00
2022-08-18T03:59:27.367Z,17.20
2022-08-18T04:04:30.499Z,14.80
2022-08-18T04:09:33.596Z,15.00
2022-08-18T04:14:37.645Z,14.40
2022-08-18T04:19:40.765Z,14.60
2022-08-18T04:24:44.568Z,15.20
2022-08-18T04:29:49.485Z,19.20
2022-08-18T04:34:52.231Z,15.60
2022-08-18T04:39:54.966Z,19.60
2022-08-18T04:44:59.145Z,16.00
2022-08-18T04:50:02.056Z,17.80
2022-08-18T04:55:05.628Z,17.00
2022-08-18T05:00:12.033Z,19.00
2022-08-18T05:05:14.794Z,17.00
2022-08-18T05:10:18.521Z,19.20
2022-08-18T05:15:22.682Z,15.60
2022-08-18T05:20:25.397Z,18.00
2022-08-18T05:25:29.791Z,18.60
2022-08-18T05:30:33.933Z,17.00
2022-08-18T05:35:39.337Z,17.80
2022-08-18T05:40:42.245Z,17.40
2022-08-18T05:45:46.613Z,16.80
2022-08-18T05:50:49.497Z,20.00
2022-08-18T05:56:16.624Z,18.20
2022-08-18T06:01:22.625Z,21.00
2022-08-18T06:06:27.851Z,19.00
2022-08-18T06:11:30.580Z,20.00
2022-08-18T06:16:44.585Z,20.00
2022-08-18T06:21:50.875Z,18.60
2022-08-18T06:26:58.104Z,19.20
2022-08-18T06:32:07.470Z,22.40
2022-08-18T06:37:12.688Z,20.00
2022-08-18T06:42:18.376Z,19.80
2022-08-18T06:47:28.420Z,19.40
2022-08-18T06:52:33.570Z,21.60
2022-08-18T06:57:38.115Z,19.00
2022-08-18T07:02:48.942Z,21.00
2022-08-18T07:08:07.333Z,22.60
2022-08-18T07:13:17.250Z,20.40
2022-08-18T07:18:26.451Z,19.80
2022-08-18T07:23:31.890Z,22.00
2022-08-18T07:28:36.771Z,19.60
2022-08-18T07:33:41.006Z,23.75
2022-08-18T07:38:46.433Z,19.60
2022-08-18T07:43:57.920Z,19.80
2022-08-18T07:49:05.363Z,20.40
2022-08-18T07:54:25.403Z,19.40
2022-08-18T07:59:35.977Z,22.20
2022-08-18T08:04:43.412Z,19.60
2022-08-18T08:09:52.179Z,19.60
2022-08-18T08:14:59.308Z,19.00
2022-08-18T08:20:12.863Z,20.20
2022-08-18T08:25:44.584Z,20.00
2022-08-18T08:30:44.119Z,20.00
2022-08-18T08:35:50.954Z,20.80
2022-08-18T08:40:55.272Z,20.00
2022-08-18T08:46:08.198Z,21.60
2022-08-18T08:51:30.231Z,22.40
2022-08-18T08:56:36.168Z,19.60
2022-08-18T09:01:44.755Z,19.60
2022-08-18T09:06:52.354Z,19.20
2022-08-18T09:12:26.532Z,18.00
2022-08-18T09:17:45.662Z,19.00
2022-08-18T09:22:52.148Z,16.80
2022-08-18T09:28:10.909Z,17.80
2022-08-18T09:33:32.452Z,15.60
2022-08-18T09:38:56.280Z,17.40
2022-08-18T09:44:17.779Z,17.40
2022-08-18T09:49:47.605Z,17.00
2022-08-18T09:54:54.700Z,16.40
2022-08-18T10:00:24.411Z,18.20
2022-08-18T10:05:31.240Z,16.20
2022-08-18T10:11:01.645Z,16.20
2022-08-18T10:16:10.450Z,16.60
2022-08-18T10:21:20.971Z,16.80
2022-08-18T10:26:55.442Z,16.40
2022-08-18T10:32:49.486Z,18.60
2022-08-18T10:37:58.435Z,16.20
2022-08-18T10:43:26.739Z,16.20
2022-08-18T10:48:34.968Z,15.00
2022-08-18T10:53:46.433Z,16.60
2022-08-18T10:59:08.297Z,14.00
2022-08-18T11:10:04.852Z,14.20
2022-08-18T11:15:22.376Z,15.60
2022-08-18T11:20:30.042Z,15.40
2022-08-18T11:25:35.571Z,16.60
2022-08-18T11:36:01.760Z,14.00
2022-08-18T11:41:17.339Z,15.00
2022-08-18T11:51:55.983Z,14.00
2022-08-18T11:57:42.022Z,16.00
2022-08-18T12:02:50.239Z,14.60
2022-08-18T12:07:57.542Z,12.20
2022-08-18T12:13:02.811Z,15.00
2022-08-18T12:18:06.340Z,14.20
2022-08-18T12:23:09.165Z,14.40
2022-08-18T12:28:13.253Z,17.00
2022-08-18T12:33:17.629Z,13.80
2022-08-18T12:38:28.258Z,14.00
2022-08-18T12:43:32.651Z,13.40
2022-08-18T12:48:37.789Z,13.60
2022-08-18T12:53:58.517Z,10.60
2022-08-18T12:59:06.301Z,16.40
2022-08-18T13:04:13.280Z,14.00
2022-08-18T13:09:34.779Z,12.00
2022-08-18T13:14:40.983Z,11.80
2022-08-18T13:19:46.460Z,14.20
2022-08-18T13:24:49.232Z,12.80
2022-08-18T13:29:56.553Z,13.00
2022-08-18T13:34:59.517Z,13.20
2022-08-18T13:40:07.212Z,13.40
2022-08-18T13:45:22.908Z,13.60
2022-08-18T13:50:29.981Z,13.40
2022-08-18T13:55:33.013Z,12.40
2022-08-18T14:00:37.278Z,14.20
2022-08-18T14:05:51.757Z,12.20
2022-08-18T14:10:57.270Z,11.60
2022-08-18T14:16:02.028Z,14.60
2022-08-18T14:21:23.608Z,11.40
2022-08-18T14:26:44.218Z,13.60
2022-08-18T14:31:48.991Z,11.60
2022-08-18T14:36:56.455Z,14.20
2022-08-18T14:41:59.754Z,13.00
2022-08-18T14:47:07.441Z,12.20
2022-08-18T14:52:14.016Z,10.00
2022-08-18T14:57:17.356Z,10.60
2022-08-18T15:02:27.036Z,11.00
2022-08-18T15:07:29.785Z,14.80
2022-08-18T15:12:35.739Z,12.80
2022-08-18T15:17:40.258Z,12.60
2022-08-18T15:23:01.028Z,12.00
2022-08-18T15:28:04.593Z,12.00
2022-08-18T15:33:10.395Z,14.00
2022-08-18T15:38:19.058Z,12.80
2022-08-18T15:43:21.983Z,12.40
2022-08-18T15:48:29.748Z,14.20
2022-08-18T15:53:32.909Z,15.00
2022-08-18T15:58:35.887Z,13.60
2022-08-18T16:03:39.985Z,14.40
2022-08-18T16:08:43.236Z,15.80
2022-08-18T16:13:46.253Z,13.80
2022-08-18T16:18:50.986Z,15.00
2022-08-18T16:23:55.864Z,14.80
2022-08-18T16:29:01.647Z,16.80
2022-08-18T16:34:06.023Z,14.20
2022-08-18T16:39:08.771Z,15.80
2022-08-18T16:44:11.970Z,15.00
2022-08-18T16:49:16.113Z,17.60
2022-08-18T16:54:18.889Z,15.80
2022-08-18T16:59:39.024Z,21.80
2022-08-18T17:04:43.097Z,23.25
2022-08-18T17:09:45.886Z,22.25
2022-08-18T17:14:52.001Z,24.75
2022-08-18T17:19:56.306Z,24.50
2022-08-18T17:25:00.186Z,23.00
2022-08-18T17:30:05.533Z,27.75
2022-08-18T17:35:14.577Z,24.00
2022-08-18T17:40:20.019Z,25.50
2022-08-18T17:45:24.526Z,26.25
2022-08-18T17:50:49.023Z,23.75
2022-08-18T17:55:53.256Z,28.75
2022-08-18T18:00:55.950Z,26.00
2022-08-18T18:06:03.670Z,24.00
2022-08-18T18:11:11.062Z,32.00
2022-08-18T18:16:21.507Z,34.25
2022-08-18T18:21:55.315Z,32.75
2022-08-18T18:26:49.035Z,34.75
2022-08-18T18:32:00.716Z,38.00
2022-08-18T18:37:05.021Z,69.00
2022-08-18T18:42:15.720Z,57.25
2022-08-18T18:47:34.830Z,45.33
2022-08-18T18:52:43.454Z,35.67
2022-08-18T18:57:49.579Z,32.25
2022-08-18T19:03:03.693Z,31.75
2022-08-18T19:08:16.666Z,31.75
2022-08-18T19:13:24.817Z,31.00
2022-08-18T19:18:38.606Z,29.00
2022-08-18T19:23:45.411Z,29.00
2022-08-18T19:29:11.864Z,27.50
2022-08-18T19:34:13.737Z,27.75
2022-08-18T19:39:24.589Z,26.75
2022-08-18T19:44:38.054Z,24.25
2022-08-18T19:49:47.028Z,24.50
2022-08-18T19:54:59.143Z,25.00
2022-08-18T20:00:25.126Z,27.00
2022-08-18T20:05:31.734Z,29.25
2022-08-18T20:10:48.671Z,30.00
2022-08-18T20:16:42.599Z,30.25
2022-08-18T20:21:48.238Z,31.75
2022-08-18T20:26:52.886Z,32.75
2022-08-18T20:32:00.174Z,32.75
2022-08-18T20:37:10.046Z,33.75
2022-08-18T20:42:51.616Z,32.25
2022-08-18T20:48:27.639Z,32.75
2022-08-18T20:53:55.415Z,32.00
2022-08-18T20:59:08.526Z,33.25
2022-08-18T21:04:11.832Z,35.25
2022-08-18T21:09:18.117Z,35.25
2022-08-18T21:14:29.773Z,34.00
2022-08-18T21:19:32.792Z,29.75
2022-08-18T21:24:36.474Z,32.25
2022-08-18T21:29:47.170Z,27.75
2022-08-18T21:34:52.137Z,26.25
2022-08-18T21:39:57.510Z,29.00
2022-08-18T21:45:01.915Z,32.75
2022-08-18T21:50:10.693Z,29.25
2022-08-18T21:55:26.393Z,23.25
2022-08-18T22:00:31.261Z,24.50
2022-08-18T22:05:57.968Z,20.40
2022-08-18T22:12:01.551Z,31.50
2022-08-18T22:17:33.468Z,22.00
2022-08-18T22:22:53.843Z,25.00
2022-08-18T22:27:59.065Z,26.75
2022-08-18T22:33:03.177Z,24.75
2022-08-18T22:38:05.940Z,24.75
2022-08-18T22:43:08.752Z,25.25
2022-08-18T22:48:13.537Z,28.50
2022-08-18T22:53:16.372Z,24.50
2022-08-18T22:58:25.945Z,28.25
2022-08-18T23:03:34.503Z,29.50
2022-08-18T23:08:54.588Z,26.25
2022-08-18T23:13:58.961Z,30.50
2022-08-18T23:19:03.506Z,29.75
2022-08-18T23:24:06.480Z,25.00
2022-08-18T23:29:10.813Z,27.75
2022-08-18T23:34:17.433Z,31.25
2022-08-18T23:39:20.101Z,30.00
2022-08-18T23:44:23.735Z,31.75
2022-08-18T23:49:31.489Z,31.00
2022-08-18T23:54:35.306Z,29.00
2022-08-18T23:59:38.047Z,31.50
